Time,TemperatureC,DewpointC,PressurehPa,WindDirection,WindDirectionDegrees,WindSpeedKMH,WindSpeedGustKMH,Humidity,HourlyPrecipMM,Conditions,Clouds,dailyrainMM,SolarRadiationWatts/m^2,UVIndex,SoftwareType,DateUTC
2022-12-03 00:00:00,-4.7,-5.4,1040.1,ENE,64,12.9,22.5,95,0.0,,,0.0,,,n/a,2022-12-02T23:00:00Z
2022-12-03 00:10:00,-4.7,-5.4,1040.2,ENE,66,11.3,16.1,95,0.0,,,0.0,,,n/a,2022-12-02T23:10:00Z
2022-12-03 00:20:00,-4.6,-5.3,1040.1,ENE,57,8,16.1,95,0.0,,,0.0,,,n/a,2022-12-02T23:20:00Z
2022-12-03 00:30:00,-4.6,-5.3,1040.1,NE,51,11.3,19.3,95,0.0,,,0.0,,,n/a,2022-12-02T23:30:00Z
2022-12-03 00:40:00,-4.6,-5.3,1040.0,NE,56,11.3,16.1,95,0.0,,,0.0,,,n/a,2022-12-02T23:40:00Z
2022-12-03 00:50:00,-4.6,-5.3,1039.9,NE,49,8,12.9,95,0.0,,,0.0,,,n/a,2022-12-02T23:50:00Z
2022-12-03 01:00:00,-4.5,-5.2,1039.7,NE,52,11.3,19.3,95,0.0,,,0.0,,,n/a,2022-12-03T00:00:00Z
2022-12-03 01:10:00,-4.6,-5.2,1039.7,NE,56,8,16.1,95,0.0,,,0.0,,,n/a,2022-12-03T00:10:00Z
2022-12-03 01:20:00,-4.7,-5.3,1039.7,ENE,70,8,16.1,95,0.0,,,0.0,,,n/a,2022-12-03T00:20:00Z
2022-12-03 01:30:00,-4.7,-5.3,1039.7,ENE,60,4.8,12.9,95,0.0,,,0.0,,,n/a,2022-12-03T00:30:00Z
2022-12-03 01:40:00,-4.6,-5.2,1039.5,ENE,61,9.7,12.9,95,0.0,,,0.0,,,n/a,2022-12-03T00:40:00Z
2022-12-03 01:50:00,-4.6,-5.3,1039.5,ENE,61,4.8,12.9,95,0.0,,,0.0,,,n/a,2022-12-03T00:50:00Z
2022-12-03 02:00:00,-4.6,-5.2,1039.5,ENE,71,3.2,12.9,95,0.0,,,0.0,,,n/a,2022-12-03T01:00:00Z
2022-12-03 02:10:00,-4.6,-5.2,1039.4,ENE,59,4.8,11.3,95,0.0,,,0.0,,,n/a,2022-12-03T01:10:00Z
2022-12-03 02:20:00,-4.6,-5.4,1039.4,ENE,77,4.8,11.3,94,0.0,,,0.0,,,n/a,2022-12-03T01:20:00Z
2022-12-03 02:30:00,-4.6,-5.4,1039.3,SE,131,3.2,8,94,0.0,,,0.0,,,n/a,2022-12-03T01:30:00Z
2022-12-03 02:40:00,-4.5,-5.3,1039.1,NE,55,4.8,9.7,94,0.0,,,0.0,,,n/a,2022-12-03T01:40:00Z
2022-12-03 02:50:00,-4.6,-5.5,1039.0,NE,47,8,11.3,93,0.0,,,0.0,,,n/a,2022-12-03T01:50:00Z
2022-12-03 03:00:00,-4.7,-5.6,1039.0,East,79,8,16.1,93,0.0,,,0.0,,,n/a,2022-12-03T02:00:00Z
2022-12-03 03:10:00,-4.7,-5.9,1038.8,South,185,1.6,9.7,91,0.0,,,0.0,,,n/a,2022-12-03T02:10:00Z
2022-12-03 03:20:00,-4.5,-5.6,1038.8,ENE,61,8,12.9,92,0.0,,,0.0,,,n/a,2022-12-03T02:20:00Z
2022-12-03 03:30:00,-4.6,-5.7,1038.7,ENE,70,9.7,16.1,92,0.0,,,0.0,,,n/a,2022-12-03T02:30:00Z
2022-12-03 03:40:00,-4.6,-5.8,1038.7,ESE,123,4.8,19.3,91,0.0,,,0.0,,,n/a,2022-12-03T02:40:00Z
2022-12-03 03:50:00,-4.7,-5.8,1038.6,ENE,65,3.2,12.9,92,0.0,,,0.0,,,n/a,2022-12-03T02:50:00Z
2022-12-03 04:00:00,-4.7,-5.8,1038.7,ENE,60,8,14.5,92,0.0,,,0.0,,,n/a,2022-12-03T03:00:00Z
2022-12-03 04:10:00,-4.7,-5.8,1038.7,ENE,59,8,14.5,92,0.0,,,0.0,,,n/a,2022-12-03T03:10:00Z
2022-12-03 04:20:00,-4.8,-6,1038.6,SE,142,4.8,11.3,91,0.0,,,0.0,,,n/a,2022-12-03T03:20:00Z
2022-12-03 04:30:00,-4.7,-5.9,1038.5,ESE,110,4.8,9.7,91,0.0,,,0.0,,,n/a,2022-12-03T03:30:00Z
2022-12-03 04:40:00,-4.6,-5.5,1038.5,ENE,59,9.7,16.1,93,0.0,,,0.0,,,n/a,2022-12-03T03:40:00Z
2022-12-03 04:50:00,-4.6,-5.6,1038.4,ENE,77,4.8,12.9,93,0.0,,,0.0,,,n/a,2022-12-03T03:50:00Z
2022-12-03 05:00:00,-4.6,-5.6,1038.5,ENE,77,4.8,11.3,93,0.0,,,0.0,,,n/a,2022-12-03T04:00:00Z
2022-12-03 05:10:00,-4.8,-6,1038.5,SSW,203,1.6,8,91,0.0,,,0.0,,,n/a,2022-12-03T04:10:00Z
2022-12-03 05:20:00,-4.7,-5.7,1038.3,NE,52,3.2,9.7,92,0.0,,,0.0,,,n/a,2022-12-03T04:20:00Z
2022-12-03 05:30:00,-4.8,-6,1038.3,SW,236,3.2,8,91,0.0,,,0.0,,,n/a,2022-12-03T04:30:00Z
2022-12-03 05:40:00,-4.7,-5.9,1038.3,NW,309,4.8,6.4,91,0.0,,,0.0,,,n/a,2022-12-03T04:40:00Z
2022-12-03 05:50:00,-4.7,-6.1,1038.1,NNE,15,1.6,6.4,90,0.0,,,0.0,,,n/a,2022-12-03T04:50:00Z
2022-12-03 06:00:00,-4.4,-5.7,1038.1,North,358,3.2,8,91,0.0,,,0.0,,,n/a,2022-12-03T05:00:00Z
2022-12-03 06:10:00,-4.7,-6.4,1038.1,NE,43,1.6,8,88,0.0,,,0.0,,,n/a,2022-12-03T05:10:00Z
2022-12-03 06:20:00,-4.6,-6.2,1037.9,NW,325,1.6,4.8,89,0.0,,,0.0,,,n/a,2022-12-03T05:20:00Z
2022-12-03 06:30:00,-4.5,-5.9,1037.8,NW,315,1.6,4.8,90,0.0,,,0.0,,,n/a,2022-12-03T05:30:00Z
2022-12-03 06:40:00,-4.4,-5.8,1037.7,NW,315,0,1.6,90,0.0,,,0.0,,,n/a,2022-12-03T05:40:00Z
2022-12-03 06:50:00,-4.4,-5.8,1037.8,NE,40,1.6,4.8,90,0.0,,,0.0,,,n/a,2022-12-03T05:50:00Z
2022-12-03 07:00:00,-4.5,-5.7,1037.9,NNE,33,4.8,11.3,91,0.0,,,0.0,,,n/a,2022-12-03T06:00:00Z
2022-12-03 07:10:00,-4.6,-5.8,1037.9,ENE,73,8,14.5,91,0.0,,,0.0,,,n/a,2022-12-03T06:10:00Z
2022-12-03 07:20:00,-4.6,-5.8,1037.9,ENE,76,8,14.5,91,0.0,,,0.0,,,n/a,2022-12-03T06:20:00Z
2022-12-03 07:30:00,-4.7,-6.2,1037.8,SSE,158,3.2,11.3,89,0.0,,,0.0,,,n/a,2022-12-03T06:30:00Z
2022-12-03 07:40:00,-4.8,-6.5,1037.8,SW,228,0,6.4,88,0.0,,,0.0,,,n/a,2022-12-03T06:40:00Z
2022-12-03 07:50:00,-4.9,-6.6,1037.6,NW,313,3.2,4.8,88,0.0,,,0.0,,,n/a,2022-12-03T06:50:00Z
2022-12-03 08:00:00,-4.8,-6.3,1037.6,ENE,76,3.2,8,89,0.0,,,0.0,,,n/a,2022-12-03T07:00:00Z
2022-12-03 08:10:00,-4.7,-6.1,1037.6,NNE,33,8,16.1,90,0.0,,,0.0,,,n/a,2022-12-03T07:10:00Z
2022-12-03 08:20:00,-4.7,-6.1,1037.5,NNE,18,4.8,16.1,90,0.0,,,0.0,,,n/a,2022-12-03T07:20:00Z
2022-12-03 08:30:00,-4.9,-6.6,1037.6,SSE,166,4.8,8,88,0.0,,,0.0,,,n/a,2022-12-03T07:30:00Z
2022-12-03 08:40:00,-5,-6.6,1037.6,SSW,201,1.6,6.4,89,0.0,,,0.0,,,n/a,2022-12-03T07:40:00Z
2022-12-03 08:50:00,-5,-6.6,1037.6,West,261,1.6,4.8,89,0.0,,,0.0,,,n/a,2022-12-03T07:50:00Z
2022-12-03 09:00:00,-4.8,-6.4,1037.5,West,271,1.6,3.2,89,0.0,,,0.0,,,n/a,2022-12-03T08:00:00Z
2022-12-03 09:10:00,-5.3,-7.1,1037.4,South,174,3.2,12.9,87,0.0,,,0.0,,,n/a,2022-12-03T08:10:00Z
2022-12-03 09:20:00,-5.4,-7.1,1037.5,ESE,112,1.6,11.3,88,0.0,,,0.0,,,n/a,2022-12-03T08:20:00Z
2022-12-03 09:30:00,-5.2,-6.8,1037.4,SSE,153,4.8,8,89,0.0,,,0.0,,,n/a,2022-12-03T08:30:00Z
2022-12-03 09:40:00,-4.8,-5.9,1037.3,East,92,4.8,12.9,92,0.0,,,0.0,,,n/a,2022-12-03T08:40:00Z
2022-12-03 09:50:00,-4.9,-6.3,1037.3,SE,139,1.6,9.7,90,0.0,,,0.0,,,n/a,2022-12-03T08:50:00Z
2022-12-03 10:00:00,-5,-6.6,1037.4,SSE,153,4.8,8,89,0.0,,,0.0,,,n/a,2022-12-03T09:00:00Z
2022-12-03 10:10:00,-5.2,-6.8,1037.4,South,177,3.2,11.3,89,0.0,,,0.0,,,n/a,2022-12-03T09:10:00Z
2022-12-03 10:20:00,-4.9,-6,1037.3,ENE,60,8,14.5,92,0.0,,,0.0,,,n/a,2022-12-03T09:20:00Z
2022-12-03 10:30:00,-4.9,-6.2,1037.2,East,95,4.8,14.5,91,0.0,,,0.0,,,n/a,2022-12-03T09:30:00Z
2022-12-03 10:40:00,-5.1,-6.6,1037.1,South,183,1.6,8,89,0.0,,,0.0,,,n/a,2022-12-03T09:40:00Z
2022-12-03 10:50:00,-5.1,-6.6,1037.0,SSW,206,1.6,3.2,89,0.0,,,0.0,,,n/a,2022-12-03T09:50:00Z
2022-12-03 11:00:00,-5,-6.4,1036.9,WNW,289,3.2,6.4,90,0.0,,,0.0,,,n/a,2022-12-03T10:00:00Z
2022-12-03 11:10:00,-4.8,-6.2,1036.7,SW,227,0,8,90,0.0,,,0.0,,,n/a,2022-12-03T10:10:00Z
2022-12-03 11:20:00,-4.8,-6.2,1036.6,ENE,67,8,14.5,90,0.0,,,0.0,,,n/a,2022-12-03T10:20:00Z
2022-12-03 11:30:00,-5,-6.5,1036.6,SE,143,4.8,12.9,89,0.0,,,0.0,,,n/a,2022-12-03T10:30:00Z
2022-12-03 11:40:00,-4.9,-6.5,1036.5,WNW,284,1.6,8,89,0.0,,,0.0,,,n/a,2022-12-03T10:40:00Z
2022-12-03 11:50:00,-5,-6.5,1036.3,WNW,292,0,4.8,89,0.0,,,0.0,,,n/a,2022-12-03T10:50:00Z
2022-12-03 12:00:00,-5,-6.4,1036.3,ESE,106,4.8,12.9,90,0.0,,,0.0,,,n/a,2022-12-03T11:00:00Z
2022-12-03 12:10:00,-5.1,-6.3,1036.4,East,81,9.7,20.9,91,0.0,,,0.0,,,n/a,2022-12-03T11:10:00Z
2022-12-03 12:20:00,-5.3,-6.7,1036.4,ESE,118,9.7,22.5,90,0.0,,,0.0,,,n/a,2022-12-03T11:20:00Z
2022-12-03 12:30:00,-5.3,-6.5,1036.5,ESE,104,9.7,19.3,91,0.0,,,0.0,,,n/a,2022-12-03T11:30:00Z
2022-12-03 12:40:00,-5.2,-6.4,1036.4,East,86,8,11.3,91,0.0,,,0.0,,,n/a,2022-12-03T11:40:00Z
2022-12-03 12:50:00,-5.4,-6.8,1036.2,SSE,153,1.6,12.9,90,0.0,,,0.0,,,n/a,2022-12-03T11:50:00Z
2022-12-03 13:00:00,-5.5,-6.9,1036.3,SE,146,8,11.3,90,0.0,,,0.0,,,n/a,2022-12-03T12:00:00Z
2022-12-03 13:10:00,-5.4,-6.6,1036.2,East,81,1.6,9.7,91,0.0,,,0.0,,,n/a,2022-12-03T12:10:00Z
2022-12-03 13:20:00,-5.3,-6.7,1036.1,East,98,3.2,9.7,90,0.0,,,0.0,,,n/a,2022-12-03T12:20:00Z
2022-12-03 13:30:00,-5.4,-6.8,1036.2,SSW,194,0,8,90,0.0,,,0.0,,,n/a,2022-12-03T12:30:00Z
2022-12-03 13:40:00,-5.3,-6.7,1036.1,SSW,194,1.6,3.2,90,0.0,,,0.0,,,n/a,2022-12-03T12:40:00Z
2022-12-03 13:50:00,-5.4,-6.9,1036.1,South,177,1.6,8,89,0.0,,,0.0,,,n/a,2022-12-03T12:50:00Z
2022-12-03 14:00:00,-5.4,-6.8,1036.0,South,180,1.6,9.7,90,0.0,,,0.0,,,n/a,2022-12-03T13:00:00Z
2022-12-03 14:10:00,-5.6,-7.3,1036.0,SSE,152,3.2,8,88,0.0,,,0.0,,,n/a,2022-12-03T13:10:00Z
2022-12-03 14:20:00,-5.7,-7.2,1035.8,West,268,3.2,8,89,0.0,,,0.0,,,n/a,2022-12-03T13:20:00Z
2022-12-03 14:30:00,-5.6,-7.1,1035.7,WSW,240,0,4.8,89,0.0,,,0.0,,,n/a,2022-12-03T13:30:00Z
2022-12-03 14:40:00,-5.5,-7.2,1035.7,WSW,239,1.6,3.2,88,0.0,,,0.0,,,n/a,2022-12-03T13:40:00Z
2022-12-03 14:50:00,-5.5,-7.2,1035.7,SW,221,4.8,8,88,0.0,,,0.0,,,n/a,2022-12-03T13:50:00Z
2022-12-03 15:00:00,-5.7,-7.3,1035.7,SW,216,4.8,9.7,88,0.0,,,0.0,,,n/a,2022-12-03T14:00:00Z
2022-12-03 15:10:00,-5.8,-7.5,1035.6,SSE,161,1.6,9.7,88,0.0,,,0.0,,,n/a,2022-12-03T14:10:00Z
2022-12-03 15:20:00,-5.8,-7.5,1035.6,WSW,257,0,4.8,88,0.0,,,0.0,,,n/a,2022-12-03T14:20:00Z
2022-12-03 15:30:00,-5.7,-7.4,1035.3,SW,230,1.6,4.8,88,0.0,,,0.0,,,n/a,2022-12-03T14:30:00Z
2022-12-03 15:40:00,-5.6,-7.2,1035.3,WSW,238,1.6,6.4,88,0.0,,,0.0,,,n/a,2022-12-03T14:40:00Z
2022-12-03 15:50:00,-5.6,-7.4,1035.4,SSW,209,1.6,8,87,0.0,,,0.0,,,n/a,2022-12-03T14:50:00Z
2022-12-03 16:00:00,-5.8,-7.4,1035.4,NNW,346,1.6,6.4,88,0.0,,,0.0,,,n/a,2022-12-03T15:00:00Z
2022-12-03 16:10:00,-6.1,-7.9,1035.4,SW,215,4.8,11.3,87,0.0,,,0.0,,,n/a,2022-12-03T15:10:00Z
2022-12-03 16:20:00,-6.4,-8.1,1035.4,South,174,3.2,9.7,88,0.0,,,0.0,,,n/a,2022-12-03T15:20:00Z
2022-12-03 16:30:00,-6.4,-7.8,1035.3,SSW,194,3.2,6.4,90,0.0,,,0.0,,,n/a,2022-12-03T15:30:00Z
2022-12-03 16:40:00,-6.5,-8,1035.3,SSW,199,4.8,12.9,89,0.0,,,0.0,,,n/a,2022-12-03T15:40:00Z
2022-12-03 16:50:00,-6.5,-7.9,1035.2,SSW,194,3.2,8,90,0.0,,,0.0,,,n/a,2022-12-03T15:50:00Z
2022-12-03 17:00:00,-6.7,-8.2,1035.2,South,179,4.8,11.3,89,0.0,,,0.0,,,n/a,2022-12-03T16:00:00Z
2022-12-03 17:10:00,-6.7,-8.1,1035.2,South,177,1.6,8,90,0.0,,,0.0,,,n/a,2022-12-03T16:10:00Z
2022-12-03 17:20:00,-6.6,-8.1,1035.2,SSW,202,1.6,4.8,89,0.0,,,0.0,,,n/a,2022-12-03T16:20:00Z
2022-12-03 17:30:00,-6.7,-8.2,1035.2,South,191,4.8,8,89,0.0,,,0.0,,,n/a,2022-12-03T16:30:00Z
2022-12-03 17:40:00,-7,-8.5,1035.2,South,179,3.2,8,89,0.0,,,0.0,,,n/a,2022-12-03T16:40:00Z
2022-12-03 17:50:00,-6.9,-8.4,1035.2,SSW,202,3.2,9.7,89,0.0,,,0.0,,,n/a,2022-12-03T16:50:00Z
2022-12-03 18:00:00,-6.8,-8.3,1035.2,South,174,0,6.4,89,0.0,,,0.0,,,n/a,2022-12-03T17:00:00Z
2022-12-03 18:10:00,-7,-8.7,1035.2,South,174,4.8,11.3,88,0.0,,,0.0,,,n/a,2022-12-03T17:10:00Z
2022-12-03 18:20:00,-6.9,-8.4,1035.2,SW,225,4.8,9.7,89,0.0,,,0.0,,,n/a,2022-12-03T17:20:00Z
2022-12-03 18:30:00,-6.9,-8.6,1035.1,WSW,252,1.6,6.4,88,0.0,,,0.0,,,n/a,2022-12-03T17:30:00Z
2022-12-03 18:40:00,-6.8,-8.5,1035.0,SW,220,4.8,9.7,88,0.0,,,0.0,,,n/a,2022-12-03T17:40:00Z
2022-12-03 18:50:00,-6.8,-8.5,1034.9,SW,236,3.2,8,88,0.0,,,0.0,,,n/a,2022-12-03T17:50:00Z
2022-12-03 19:00:00,-6.8,-8.4,1035.0,SSW,200,3.2,11.3,88,0.0,,,0.0,,,n/a,2022-12-03T18:00:00Z
2022-12-03 19:10:00,-6.8,-8.4,1034.8,South,189,4.8,8,88,0.0,,,0.0,,,n/a,2022-12-03T18:10:00Z
2022-12-03 19:20:00,-6.8,-8.4,1034.8,SSW,195,9.7,12.9,88,0.0,,,0.0,,,n/a,2022-12-03T18:20:00Z
2022-12-03 19:30:00,-7,-8.7,1034.8,South,183,1.6,16.1,88,0.0,,,0.0,,,n/a,2022-12-03T18:30:00Z